Time;durP1;ratioP1;P1;durP2;ratioP2;P2;SDS_P1;SDS_P2;PMS_P1;PMS_P2;Temp;Humidity;BMP_temperature;BMP_pressure;BME280_temperature;BME280_humidity;BME280_pressure;Samples;Min_cycle;Max_cycle;Signal;HPM_P1;HPM_P2
2024/02/23 00:00:10;;;;;;;1.83;0.70;;;;;;;;;;700524;28;4313;-68
2024/02/23 00:00:31;;;;;;;1.70;0.80;;;;;;;;;;701095;28;1410;-69
2024/02/23 00:00:51;;;;;;;1.83;0.90;;;;;;;;;;700503;27;1731;-66
2024/02/23 00:01:11;;;;;;;1.07;0.80;;;;;;;;;;704566;28;852;-68
2024/02/23 00:01:32;;;;;;;1.30;0.80;;;;;;;;;;702081;28;880;-67
2024/02/23 00:01:52;;;;;;;1.50;0.80;;;;;;;;;;699056;28;2074;-66
2024/02/23 00:02:12;;;;;;;2.00;0.70;;;;;;;;;;701397;28;1500;-68
2024/02/23 00:02:32;;;;;;;3.07;0.80;;;;;;;;;;701063;28;869;-67
2024/02/23 00:02:54;;;;;;;3.63;0.85;;;;;;;;;;700304;28;1749;-66
2024/02/23 00:03:14;;;;;;;2.30;0.60;;;;;;;;;;700439;28;5167;-67
2024/02/23 00:03:37;;;;;;;1.10;0.67;;;;;;;;;;703391;28;1601;-65
2024/02/23 00:03:57;;;;;;;1.50;0.88;;;;;;;;;;705039;28;1193;-68
2024/02/23 00:04:20;;;;;;;1.57;0.70;;;;;;;;;;704807;28;938;-67
2024/02/23 00:04:41;;;;;;;2.08;0.80;;;;;;;;;;700366;28;1713;-68
2024/02/23 00:05:02;;;;;;;1.17;0.70;;;;;;;;;;703315;28;991;-67
2024/02/23 00:05:22;;;;;;;1.77;0.80;;;;;;;;;;701379;28;974;-66
2024/02/23 00:05:42;;;;;;;1.93;0.90;;;;;;;;;;701255;28;2931;-68
2024/02/23 00:06:03;;;;;;;1.17;0.77;;;;;;;;;;703342;28;4437;-65
2024/02/23 00:06:27;;;;;;;1.88;0.80;;;;;;;;;;704064;28;916;-66
2024/02/23 00:06:47;;;;;;;2.08;0.90;;;;;;;;;;700782;28;2061;-66
2024/02/23 00:07:07;;;;;;;1.53;0.80;;;;;;;;;;703155;28;1079;-66
2024/02/23 00:07:28;;;;;;;2.35;0.90;;;;;;;;;;703259;28;783;-67
2024/02/23 00:07:48;;;;;;;1.80;0.87;;;;;;;;;;702190;28;1784;-68
2024/02/23 00:08:11;;;;;;;3.30;1.00;;;;;;;;;;705540;27;901;-67
2024/02/23 00:08:31;;;;;;;2.70;0.82;;;;;;;;;;705355;27;916;-65
2024/02/23 00:08:53;;;;;;;1.57;0.80;;;;;;;;;;703246;27;2895;-68
2024/02/23 00:09:13;;;;;;;1.27;0.80;;;;;;;;;;704223;27;4701;-74
2024/02/23 00:09:34;;;;;;;2.10;0.80;;;;;;;;;;702792;27;888;-66
2024/02/23 00:09:54;;;;;;;2.07;0.80;;;;;;;;;;698374;28;2102;-69
2024/02/23 00:10:15;;;;;;;1.67;0.80;;;;;;;;;;698388;28;1250;-67
2024/02/23 00:10:35;;;;;;;2.20;0.73;;;;;;;;;;697560;28;1759;-72
2024/02/23 00:10:55;;;;;;;2.03;0.90;;;;;;;;;;700396;28;889;-68
2024/02/23 00:11:15;;;;;;;2.20;1.00;;;;;;;;;;699418;28;857;-66
2024/02/23 00:11:40;;;;;;;2.50;1.00;;;;;;;;;;696173;28;2406;-66
2024/02/23 00:12:01;;;;;;;2.00;1.00;;;;;;;;;;703768;27;4525;-68
2024/02/23 00:12:21;;;;;;;1.60;0.80;;;;;;;;;;704100;28;1331;-69
2024/02/23 00:12:43;;;;;;;2.30;0.80;;;;;;;;;;703835;27;1465;-68
2024/02/23 00:13:03;;;;;;;1.20;0.70;;;;;;;;;;703804;27;896;-67
2024/02/23 00:13:24;;;;;;;1.20;0.80;;;;;;;;;;704047;27;896;-68
2024/02/23 00:13:44;;;;;;;1.30;0.80;;;;;;;;;;701401;28;1774;-68
2024/02/23 00:14:04;;;;;;;1.80;0.80;;;;;;;;;;704173;27;1627;-69
2024/02/23 00:14:24;;;;;;;1.27;0.80;;;;;;;;;;704514;27;979;-68
2024/02/23 00:14:45;;;;;;;1.00;0.70;;;;;;;;;;700386;28;1824;-69
2024/02/23 00:15:05;;;;;;;1.20;0.70;;;;;;;;;;701715;28;4465;-68
2024/02/23 00:15:25;;;;;;;1.50;0.70;;;;;;;;;;701780;28;813;-72
2024/02/23 00:15:46;;;;;;;1.23;0.70;;;;;;;;;;698753;28;1747;-66
2024/02/23 00:16:06;;;;;;;1.97;0.80;;;;;;;;;;700742;28;931;-68
2024/02/23 00:16:26;;;;;;;2.13;0.90;;;;;;;;;;701118;28;943;-68
2024/02/23 00:16:47;;;;;;;2.00;0.90;;;;;;;;;;702043;27;1918;-68
2024/02/23 00:17:07;;;;;;;1.35;0.88;;;;;;;;;;702027;28;916;-68
2024/02/23 00:17:28;;;;;;;1.53;0.80;;;;;;;;;;704303;27;1061;-68
2024/02/23 00:17:48;;;;;;;1.33;0.70;;;;;;;;;;702155;27;1627;-68
2024/02/23 00:18:08;;;;;;;1.40;0.80;;;;;;;;;;702413;27;4342;-68
2024/02/23 00:18:28;;;;;;;1.77;0.87;;;;;;;;;;704339;27;1237;-68
2024/02/23 00:18:49;;;;;;;1.60;0.80;;;;;;;;;;703614;27;2615;-67
2024/02/23 00:19:09;;;;;;;1.10;0.80;;;;;;;;;;704413;27;1180;-67
2024/02/23 00:19:32;;;;;;;1.80;0.80;;;;;;;;;;700976;28;920;-69
2024/02/23 00:19:53;;;;;;;1.88;0.90;;;;;;;;;;699552;28;2376;-67
2024/02/23 00:20:15;;;;;;;1.47;0.70;;;;;;;;;;701884;28;868;-67
2024/02/23 00:20:36;;;;;;;2.15;0.82;;;;;;;;;;700721;28;1863;-65
2024/02/23 00:20:56;;;;;;;2.05;0.82;;;;;;;;;;701055;28;4467;-68
2024/02/23 00:21:16;;;;;;;1.42;0.80;;;;;;;;;;702040;28;821;-67
2024/02/23 00:21:37;;;;;;;0.97;0.70;;;;;;;;;;703315;27;2051;-68
2024/02/23 00:21:59;;;;;;;1.33;0.80;;;;;;;;;;705548;27;920;-67
2024/02/23 00:22:19;;;;;;;1.30;0.70;;;;;;;;;;705067;27;1060;-68
2024/02/23 00:22:39;;;;;;;2.00;0.87;;;;;;;;;;703328;27;2220;-68
2024/02/23 00:22:59;;;;;;;2.00;0.90;;;;;;;;;;704347;27;4388;-67
2024/02/23 00:23:20;;;;;;;2.37;0.77;;;;;;;;;;704125;27;1101;-68
2024/02/23 00:23:40;;;;;;;2.33;0.80;;;;;;;;;;701384;28;2534;-66
2024/02/23 00:24:00;;;;;;;1.60;0.80;;;;;;;;;;698253;28;4292;-68
2024/02/23 00:24:20;;;;;;;1.23;0.73;;;;;;;;;;701797;28;832;-67
2024/02/23 00:24:41;;;;;;;1.08;0.70;;;;;;;;;;698233;28;2303;-68
2024/02/23 00:25:01;;;;;;;1.30;0.70;;;;;;;;;;703221;28;998;-68
2024/02/23 00:25:23;;;;;;;1.30;0.80;;;;;;;;;;702973;28;959;-67
2024/02/23 00:25:43;;;;;;;1.25;0.82;;;;;;;;;;700759;27;1721;-67
2024/02/23 00:26:03;;;;;;;1.97;1.00;;;;;;;;;;704215;27;773;-66
2024/02/23 00:26:23;;;;;;;1.75;1.00;;;;;;;;;;700696;28;1159;-65
2024/02/23 00:26:44;;;;;;;1.40;0.90;;;;;;;;;;700538;28;2179;-66
2024/02/23 00:27:04;;;;;;;1.58;0.90;;;;;;;;;;702961;28;4693;-65
2024/02/23 00:27:25;;;;;;;1.90;0.90;;;;;;;;;;702454;28;990;-67
2024/02/23 00:27:46;;;;;;;1.87;1.00;;;;;;;;;;699088;28;1002;-66
2024/02/23 00:28:07;;;;;;;2.45;1.05;;;;;;;;;;701492;28;1265;-66
2024/02/23 00:28:27;;;;;;;2.33;1.10;;;;;;;;;;704819;27;884;-64
2024/02/23 00:28:48;;;;;;;1.90;1.00;;;;;;;;;;702702;27;1768;-67
2024/02/23 00:29:09;;;;;;;2.75;1.10;;;;;;;;;;704228;28;966;-65
2024/02/23 00:29:29;;;;;;;3.50;1.10;;;;;;;;;;703883;27;975;-67
2024/02/23 00:29:49;;;;;;;2.00;1.00;;;;;;;;;;696603;28;2508;-66
2024/02/23 00:30:10;;;;;;;2.40;1.00;;;;;;;;;;697597;28;4243;-65
2024/02/23 00:30:30;;;;;;;1.98;0.90;;;;;;;;;;698574;28;881;-66
2024/02/23 00:30:51;;;;;;;2.40;1.00;;;;;;;;;;697014;28;2371;-66
2024/02/23 00:31:11;;;;;;;2.43;1.00;;;;;;;;;;698563;28;1284;-66
2024/02/23 00:31:32;;;;;;;1.77;1.00;;;;;;;;;;701544;28;805;-66
2024/02/23 00:31:52;;;;;;;2.10;1.00;;;;;;;;;;701069;28;1470;-66
2024/02/23 00:32:12;;;;;;;1.83;1.00;;;;;;;;;;701861;28;1333;-65
2024/02/23 00:32:32;;;;;;;3.50;1.10;;;;;;;;;;704311;28;949;-65
2024/02/23 00:32:53;;;;;;;3.90;1.03;;;;;;;;;;703001;27;1888;-67
2024/02/23 00:33:13;;;;;;;1.08;0.82;;;;;;;;;;702631;28;4353;-66
2024/02/23 00:33:34;;;;;;;1.37;0.90;;;;;;;;;;704723;27;817;-65
2024/02/23 00:33:54;;;;;;;2.17;1.00;;;;;;;;;;702361;28;2207;-65
2024/02/23 00:34:14;;;;;;;1.30;0.80;;;;;;;;;;698511;28;1702;-66
2024/02/23 00:34:35;;;;;;;0.90;0.70;;;;;;;;;;699318;28;1370;-66
2024/02/23 00:34:56;;;;;;;1.52;0.88;;;;;;;;;;699969;28;1457;-67
2024/02/23 00:35:17;;;;;;;2.28;0.90;;;;;;;;;;698611;28;1604;-66
2024/02/23 00:35:37;;;;;;;2.73;1.00;;;;;;;;;;697193;28;2481;-67
2024/02/23 00:35:57;;;;;;;2.13;0.90;;;;;;;;;;698676;28;4445;-66
2024/02/23 00:36:17;;;;;;;1.57;0.83;;;;;;;;;;697917;28;1302;-66
2024/02/23 00:36:38;;;;;;;1.75;0.90;;;;;;;;;;697599;28;2889;-66
2024/02/23 00:36:58;;;;;;;1.42;0.85;;;;;;;;;;699127;28;1021;-66
2024/02/23 00:37:19;;;;;;;1.40;0.90;;;;;;;;;;702004;28;920;-66
2024/02/23 00:37:39;;;;;;;1.23;0.80;;;;;;;;;;700644;28;1900;-66
2024/02/23 00:37:59;;;;;;;2.05;0.80;;;;;;;;;;697856;28;3588;-68
2024/02/23 00:38:19;;;;;;;1.73;0.90;;;;;;;;;;702227;28;1010;-66
2024/02/23 00:38:40;;;;;;;1.90;0.80;;;;;;;;;;700036;28;2517;-67
2024/02/23 00:39:00;;;;;;;1.73;0.90;;;;;;;;;;700308;28;4786;-67
2024/02/23 00:39:20;;;;;;;2.37;0.90;;;;;;;;;;701987;28;949;-66
2024/02/23 00:39:40;;;;;;;2.43;0.90;;;;;;;;;;697505;28;2614;-67
2024/02/23 00:40:03;;;;;;;2.13;0.80;;;;;;;;;;701677;28;1148;-67
2024/02/23 00:40:24;;;;;;;1.50;0.85;;;;;;;;;;701399;28;818;-66
2024/02/23 00:40:45;;;;;;;1.63;0.80;;;;;;;;;;699613;28;1883;-66
2024/02/23 00:41:06;;;;;;;1.60;0.80;;;;;;;;;;702181;28;774;-67
2024/02/23 00:41:26;;;;;;;1.38;0.80;;;;;;;;;;702338;28;1023;-65
2024/02/23 00:41:46;;;;;;;1.70;0.70;;;;;;;;;;703552;27;1751;-67
2024/02/23 00:42:07;;;;;;;2.03;0.77;;;;;;;;;;702161;28;4389;-67
2024/02/23 00:42:27;;;;;;;2.00;0.90;;;;;;;;;;704837;27;892;-67
2024/02/23 00:42:47;;;;;;;1.88;0.95;;;;;;;;;;703510;27;1509;-67
2024/02/23 00:43:08;;;;;;;2.23;0.90;;;;;;;;;;706225;27;805;-67
2024/02/23 00:43:29;;;;;;;2.17;0.90;;;;;;;;;;704792;27;958;-68
2024/02/23 00:43:49;;;;;;;1.60;1.00;;;;;;;;;;703919;27;2424;-67
2024/02/23 00:44:10;;;;;;;1.70;0.90;;;;;;;;;;706262;27;946;-67
2024/02/23 00:44:30;;;;;;;1.43;0.90;;;;;;;;;;704279;27;1150;-67
2024/02/23 00:44:50;;;;;;;1.13;0.80;;;;;;;;;;704245;27;2471;-67
2024/02/23 00:45:10;;;;;;;1.73;0.97;;;;;;;;;;704363;27;4482;-68
2024/02/23 00:45:31;;;;;;;2.23;0.90;;;;;;;;;;705581;27;828;-66
2024/02/23 00:45:51;;;;;;;1.63;0.75;;;;;;;;;;702013;27;2454;-66
2024/02/23 00:46:11;;;;;;;1.90;0.90;;;;;;;;;;702581;28;1347;-66
2024/02/23 00:46:32;;;;;;;1.67;0.90;;;;;;;;;;702356;28;920;-65
2024/02/23 00:46:52;;;;;;;1.80;0.88;;;;;;;;;;700641;28;2424;-67
2024/02/23 00:47:12;;;;;;;1.40;0.80;;;;;;;;;;702193;28;870;-65
2024/02/23 00:47:33;;;;;;;1.20;0.90;;;;;;;;;;702064;28;1225;-66
2024/02/23 00:47:53;;;;;;;2.10;0.88;;;;;;;;;;697534;28;2420;-65
2024/02/23 00:48:13;;;;;;;1.75;0.73;;;;;;;;;;700949;28;4450;-65
2024/02/23 00:48:34;;;;;;;1.70;0.80;;;;;;;;;;700450;28;1324;-66
2024/02/23 00:48:54;;;;;;;1.35;0.80;;;;;;;;;;700881;28;1472;-66
2024/02/23 00:49:14;;;;;;;2.10;0.83;;;;;;;;;;702322;28;1301;-65
2024/02/23 00:49:35;;;;;;;1.73;0.80;;;;;;;;;;701572;28;935;-66
2024/02/23 00:49:55;;;;;;;2.53;0.83;;;;;;;;;;705336;27;1124;-65
2024/02/23 00:50:15;;;;;;;2.13;0.73;;;;;;;;;;704554;27;1503;-66
2024/02/23 00:50:35;;;;;;;2.40;1.00;;;;;;;;;;704225;27;849;-66
2024/02/23 00:50:56;;;;;;;2.37;0.90;;;;;;;;;;698822;28;4366;-65
2024/02/23 00:51:16;;;;;;;2.25;0.80;;;;;;;;;;701865;28;782;-66
2024/02/23 00:51:36;;;;;;;1.10;0.60;;;;;;;;;;701357;28;4467;-65
2024/02/23 00:51:56;;;;;;;1.17;0.70;;;;;;;;;;699983;28;1924;-65
2024/02/23 00:52:17;;;;;;;2.10;0.80;;;;;;;;;;703589;28;955;-65
2024/02/23 00:52:38;;;;;;;2.40;0.90;;;;;;;;;;700241;28;2726;-66
2024/02/23 00:52:58;;;;;;;2.03;0.88;;;;;;;;;;704527;27;860;-66
2024/02/23 00:53:20;;;;;;;1.70;0.83;;;;;;;;;;705754;27;951;-66
2024/02/23 00:53:40;;;;;;;1.52;0.70;;;;;;;;;;703330;27;1172;-66
2024/02/23 00:54:00;;;;;;;2.08;0.70;;;;;;;;;;705022;27;4218;-64
2024/02/23 00:54:21;;;;;;;1.67;0.80;;;;;;;;;;703260;28;978;-66
2024/02/23 00:54:41;;;;;;;2.50;1.00;;;;;;;;;;702620;28;934;-67
2024/02/23 00:55:01;;;;;;;2.53;0.95;;;;;;;;;;705663;27;919;-67
2024/02/23 00:55:22;;;;;;;1.37;0.70;;;;;;;;;;705865;27;1241;-67
2024/02/23 00:55:42;;;;;;;1.93;0.70;;;;;;;;;;700400;28;2312;-67
2024/02/23 00:56:02;;;;;;;2.90;0.80;;;;;;;;;;703317;28;940;-67
2024/02/23 00:56:23;;;;;;;2.37;0.87;;;;;;;;;;702067;28;1005;-66
2024/02/23 00:56:43;;;;;;;2.70;0.80;;;;;;;;;;699745;28;2378;-66
2024/02/23 00:57:03;;;;;;;2.33;0.80;;;;;;;;;;699645;28;4291;-66
2024/02/23 00:57:29;;;;;;;1.83;0.80;;;;;;;;;;701000;28;1321;-66
2024/02/23 00:57:49;;;;;;;1.80;0.82;;;;;;;;;;701421;27;1722;-66
2024/02/23 00:58:09;;;;;;;1.80;0.87;;;;;;;;;;705244;27;983;-66
2024/02/23 00:58:30;;;;;;;1.30;0.80;;;;;;;;;;703873;27;1188;-67
2024/02/23 00:58:50;;;;;;;1.20;0.80;;;;;;;;;;702219;28;1692;-67
2024/02/23 00:59:10;;;;;;;2.47;0.80;;;;;;;;;;704246;27;1205;-68
2024/02/23 00:59:30;;;;;;;3.35;0.90;;;;;;;;;;703286;27;928;-66
2024/02/23 00:59:51;;;;;;;2.10;0.80;;;;;;;;;;702353;27;1794;-65
2024/02/23 01:00:11;;;;;;;1.37;0.70;;;;;;;;;;702902;27;4440;-67
2024/02/23 01:00:32;;;;;;;2.42;0.80;;;;;;;;;;704320;28;1201;-67
2024/02/23 01:00:52;;;;;;;2.60;0.90;;;;;;;;;;698983;28;2490;-68
2024/02/23 01:01:12;;;;;;;1.60;0.80;;;;;;;;;;700408;28;919;-67
2024/02/23 01:01:33;;;;;;;1.50;0.80;;;;;;;;;;702084;28;916;-67
2024/02/23 01:01:53;;;;;;;1.48;0.90;;;;;;;;;;700797;28;2170;-67
2024/02/23 01:02:14;;;;;;;1.30;0.70;;;;;;;;;;701112;28;1281;-67
2024/02/23 01:02:34;;;;;;;1.80;0.80;;;;;;;;;;702240;28;955;-68
2024/02/23 01:02:54;;;;;;;2.07;0.90;;;;;;;;;;704043;27;4409;-67
2024/02/23 01:03:15;;;;;;;1.77;0.90;;;;;;;;;;703464;27;923;-66
2024/02/23 01:03:35;;;;;;;2.77;0.80;;;;;;;;;;704308;27;1081;-66
2024/02/23 01:03:55;;;;;;;1.97;0.80;;;;;;;;;;703419;27;1643;-67
2024/02/23 01:04:15;;;;;;;1.30;0.80;;;;;;;;;;705515;27;1114;-67
2024/02/23 01:04:35;;;;;;;1.53;0.73;;;;;;;;;;705320;27;884;-69
2024/02/23 01:04:58;;;;;;;2.10;0.80;;;;;;;;;;701418;28;1719;-67
2024/02/23 01:05:18;;;;;;;2.30;0.80;;;;;;;;;;704151;27;1158;-66
2024/02/23 01:05:39;;;;;;;1.87;0.73;;;;;;;;;;702010;27;997;-67
2024/02/23 01:05:59;;;;;;;1.90;0.90;;;;;;;;;;702904;27;4262;-66
2024/02/23 01:06:20;;;;;;;1.63;0.80;;;;;;;;;;705541;27;813;-67
2024/02/23 01:06:40;;;;;;;1.10;0.80;;;;;;;;;;702659;27;2275;-67
2024/02/23 01:07:00;;;;;;;1.10;0.77;;;;;;;;;;703858;27;1207;-67
2024/02/23 01:07:20;;;;;;;1.30;0.80;;;;;;;;;;705418;27;905;-68
2024/02/23 01:07:41;;;;;;;1.85;0.80;;;;;;;;;;702681;27;1050;-67
2024/02/23 01:08:01;;;;;;;2.30;0.90;;;;;;;;;;704655;27;1630;-67
2024/02/23 01:08:21;;;;;;;2.10;0.80;;;;;;;;;;705192;27;801;-68
2024/02/23 01:08:42;;;;;;;1.85;0.70;;;;;;;;;;703522;27;2037;-67
2024/02/23 01:09:04;;;;;;;1.90;0.80;;;;;;;;;;704359;27;4411;-66
2024/02/23 01:09:24;;;;;;;1.65;0.80;;;;;;;;;;706650;27;923;-67
2024/02/23 01:09:44;;;;;;;1.30;0.80;;;;;;;;;;698523;28;1844;-67
2024/02/23 01:10:05;;;;;;;2.53;1.00;;;;;;;;;;700052;28;915;-67
2024/02/23 01:10:25;;;;;;;1.70;0.80;;;;;;;;;;697010;28;1122;-68
2024/02/23 01:10:46;;;;;;;1.40;0.90;;;;;;;;;;695295;28;1729;-65
2024/02/23 01:11:06;;;;;;;2.13;0.87;;;;;;;;;;697429;28;931;-67
2024/02/23 01:11:26;;;;;;;3.00;1.00;;;;;;;;;;697606;28;904;-67
2024/02/23 01:11:47;;;;;;;1.73;0.90;;;;;;;;;;700330;28;1831;-67
2024/02/23 01:12:07;;;;;;;3.10;1.00;;;;;;;;;;700848;28;4288;-66
2024/02/23 01:12:27;;;;;;;1.93;0.83;;;;;;;;;;702876;27;974;-67
2024/02/23 01:12:47;;;;;;;1.70;0.90;;;;;;;;;;700590;28;1859;-67
2024/02/23 01:13:08;;;;;;;2.00;0.90;;;;;;;;;;705027;27;777;-66
2024/02/23 01:13:28;;;;;;;3.00;0.90;;;;;;;;;;701743;28;906;-67
2024/02/23 01:13:48;;;;;;;2.90;1.00;;;;;;;;;;701811;27;1719;-68
2024/02/23 01:14:09;;;;;;;2.28;1.02;;;;;;;;;;704703;27;919;-65
2024/02/23 01:14:29;;;;;;;2.17;0.87;;;;;;;;;;705475;27;728;-67
2024/02/23 01:14:50;;;;;;;3.40;1.10;;;;;;;;;;702254;28;2390;-66
2024/02/23 01:15:10;;;;;;;2.80;1.10;;;;;;;;;;703104;28;4477;-66
2024/02/23 01:15:30;;;;;;;2.67;1.00;;;;;;;;;;705230;27;951;-67
2024/02/23 01:15:51;;;;;;;3.20;1.10;;;;;;;;;;703010;28;1736;-67
2024/02/23 01:16:11;;;;;;;2.17;0.90;;;;;;;;;;703573;28;832;-65
2024/02/23 01:16:32;;;;;;;2.10;1.00;;;;;;;;;;703715;28;934;-66
2024/02/23 01:16:52;;;;;;;2.13;0.90;;;;;;;;;;703317;27;2195;-70
2024/02/23 01:17:13;;;;;;;2.43;0.90;;;;;;;;;;704538;27;989;-66
2024/02/23 01:17:33;;;;;;;2.63;0.83;;;;;;;;;;702114;28;923;-66
2024/02/23 01:17:53;;;;;;;1.63;0.90;;;;;;;;;;701296;27;2238;-66
2024/02/23 01:18:14;;;;;;;1.93;0.90;;;;;;;;;;703063;27;4388;-66
2024/02/23 01:18:34;;;;;;;3.70;1.00;;;;;;;;;;698737;28;1021;-67
2024/02/23 01:18:54;;;;;;;4.13;1.10;;;;;;;;;;700036;28;2492;-66
2024/02/23 01:19:15;;;;;;;2.33;1.10;;;;;;;;;;699587;28;4551;-66
2024/02/23 01:19:36;;;;;;;1.67;0.90;;;;;;;;;;702002;28;960;-66
2024/02/23 01:19:56;;;;;;;1.63;0.80;;;;;;;;;;699696;28;2507;-66
2024/02/23 01:20:17;;;;;;;3.07;0.90;;;;;;;;;;701414;28;952;-66
2024/02/23 01:20:37;;;;;;;2.25;0.90;;;;;;;;;;700751;28;1093;-66
2024/02/23 01:20:57;;;;;;;1.43;0.70;;;;;;;;;;698837;28;4837;-66
2024/02/23 01:21:18;;;;;;;1.83;0.73;;;;;;;;;;698035;28;1040;-70
2024/02/23 01:21:38;;;;;;;1.75;0.88;;;;;;;;;;698703;28;1752;-66
2024/02/23 01:22:01;;;;;;;1.80;0.90;;;;;;;;;;698315;28;1099;-65
2024/02/23 01:22:22;;;;;;;2.97;0.80;;;;;;;;;;699284;28;1291;-62
2024/02/23 01:22:42;;;;;;;2.70;0.70;;;;;;;;;;698280;28;2604;-65
2024/02/23 01:23:02;;;;;;;2.35;0.80;;;;;;;;;;700794;28;3181;-64
2024/02/23 01:23:22;;;;;;;1.97;0.90;;;;;;;;;;704755;27;952;-64
2024/02/23 01:23:43;;;;;;;1.60;0.90;;;;;;;;;;703071;27;1029;-66
2024/02/23 01:24:04;;;;;;;1.10;0.80;;;;;;;;;;703277;28;4548;-64
2024/02/23 01:24:26;;;;;;;1.65;0.90;;;;;;;;;;704261;27;970;-65
2024/02/23 01:24:46;;;;;;;2.55;0.80;;;;;;;;;;701636;27;1496;-65
2024/02/23 01:25:06;;;;;;;1.97;0.80;;;;;;;;;;704330;27;786;-65
2024/02/23 01:25:26;;;;;;;2.15;0.88;;;;;;;;;;704926;27;891;-64
2024/02/23 01:25:47;;;;;;;2.03;0.90;;;;;;;;;;702854;28;1162;-65
2024/02/23 01:26:07;;;;;;;1.93;0.90;;;;;;;;;;705521;27;824;-64
2024/02/23 01:26:27;;;;;;;2.47;0.97;;;;;;;;;;704851;27;958;-65
2024/02/23 01:26:47;;;;;;;2.58;0.98;;;;;;;;;;703354;27;5144;-66
2024/02/23 01:27:08;;;;;;;2.23;0.90;;;;;;;;;;703713;27;4468;-70
2024/02/23 01:27:28;;;;;;;2.70;0.95;;;;;;;;;;701179;28;1321;-65
2024/02/23 01:27:48;;;;;;;2.60;0.90;;;;;;;;;;697467;28;2264;-65
2024/02/23 01:28:09;;;;;;;1.97;0.80;;;;;;;;;;698757;28;909;-66
2024/02/23 01:28:29;;;;;;;1.83;0.80;;;;;;;;;;697942;28;944;-66
2024/02/23 01:28:49;;;;;;;2.30;0.77;;;;;;;;;;697604;28;934;-66
2024/02/23 01:29:10;;;;;;;1.97;0.70;;;;;;;;;;697478;28;1238;-67
2024/02/23 01:29:30;;;;;;;1.33;0.60;;;;;;;;;;699443;28;960;-64
2024/02/23 01:29:50;;;;;;;1.90;0.90;;;;;;;;;;700758;28;1754;-65
2024/02/23 01:30:11;;;;;;;3.07;0.97;;;;;;;;;;699017;28;4279;-65
2024/02/23 01:30:31;;;;;;;3.22;1.02;;;;;;;;;;702220;28;845;-66
2024/02/23 01:30:51;;;;;;;2.13;1.00;;;;;;;;;;693952;28;1751;-66
2024/02/23 01:31:11;;;;;;;2.10;0.90;;;;;;;;;;699601;28;845;-65
2024/02/23 01:31:32;;;;;;;1.65;0.80;;;;;;;;;;695234;28;939;-66
2024/02/23 01:31:54;;;;;;;1.93;0.87;;;;;;;;;;692483;28;1777;-66
2024/02/23 01:32:14;;;;;;;1.75;0.82;;;;;;;;;;697864;28;952;-65
2024/02/23 01:32:37;;;;;;;2.20;0.80;;;;;;;;;;698181;28;1418;-66
2024/02/23 01:32:57;;;;;;;2.70;0.75;;;;;;;;;;699092;28;4529;-65
2024/02/23 01:33:18;;;;;;;1.97;0.80;;;;;;;;;;703842;27;983;-65
2024/02/23 01:33:38;;;;;;;2.00;0.70;;;;;;;;;;705219;27;928;-65
2024/02/23 01:33:59;;;;;;;2.27;0.70;;;;;;;;;;702040;27;3649;-65
2024/02/23 01:34:19;;;;;;;2.67;1.00;;;;;;;;;;704086;27;1243;-66
2024/02/23 01:34:39;;;;;;;2.27;0.77;;;;;;;;;;701229;27;2264;-66
2024/02/23 01:34:59;;;;;;;1.80;0.70;;;;;;;;;;703977;27;1498;-66
2024/02/23 01:35:20;;;;;;;1.87;0.80;;;;;;;;;;702356;28;939;-66
2024/02/23 01:35:40;;;;;;;3.42;0.80;;;;;;;;;;699442;28;2945;-66
2024/02/23 01:36:00;;;;;;;2.27;0.70;;;;;;;;;;699925;28;4292;-66
2024/02/23 01:36:20;;;;;;;1.77;0.70;;;;;;;;;;701011;28;975;-66
2024/02/23 01:36:41;;;;;;;2.45;0.73;;;;;;;;;;699340;28;1987;-66
2024/02/23 01:37:01;;;;;;;2.00;0.67;;;;;;;;;;700991;28;853;-66
2024/02/23 01:37:21;;;;;;;2.97;0.70;;;;;;;;;;702338;27;865;-67
2024/02/23 01:37:41;;;;;;;1.90;0.70;;;;;;;;;;701122;27;1111;-67
2024/02/23 01:38:02;;;;;;;1.83;0.73;;;;;;;;;;701874;27;801;-66
2024/02/23 01:38:24;;;;;;;1.60;0.65;;;;;;;;;;700833;28;1038;-66
2024/02/23 01:38:45;;;;;;;1.73;0.70;;;;;;;;;;698847;28;991;-67
2024/02/23 01:39:05;;;;;;;2.10;0.70;;;;;;;;;;700211;28;4307;-65
2024/02/23 01:39:25;;;;;;;3.23;0.70;;;;;;;;;;703016;28;1056;-67
2024/02/23 01:39:46;;;;;;;3.80;0.63;;;;;;;;;;700224;28;2614;-65
2024/02/23 01:40:07;;;;;;;1.55;0.75;;;;;;;;;;701793;27;1324;-64
2024/02/23 01:40:27;;;;;;;1.73;0.90;;;;;;;;;;704430;27;955;-65
2024/02/23 01:40:47;;;;;;;1.90;0.70;;;;;;;;;;703792;27;2295;-65
2024/02/23 01:41:08;;;;;;;1.97;0.90;;;;;;;;;;704917;27;901;-65
2024/02/23 01:41:28;;;;;;;1.43;0.67;;;;;;;;;;703795;28;1035;-65
2024/02/23 01:41:48;;;;;;;1.83;0.70;;;;;;;;;;703359;27;2201;-64
2024/02/23 01:42:09;;;;;;;2.40;0.80;;;;;;;;;;700805;28;4571;-65
2024/02/23 01:42:29;;;;;;;1.70;0.70;;;;;;;;;;701477;28;780;-65
2024/02/23 01:43:00;;;;;;;1.88;0.77;;;;;;;;;;697644;28;2131;-65
2024/02/23 01:43:20;;;;;;;2.53;0.85;;;;;;;;;;698572;28;1498;-66
2024/02/23 01:43:41;;;;;;;1.43;0.73;;;;;;;;;;698109;28;1795;-65
2024/02/23 01:44:01;;;;;;;1.43;1.00;;;;;;;;;;695878;28;921;-65
2024/02/23 01:44:21;;;;;;;1.65;0.75;;;;;;;;;;696802;28;881;-65
2024/02/23 01:44:42;;;;;;;1.90;0.80;;;;;;;;;;697153;28;1043;-64
2024/02/23 01:45:03;;;;;;;2.23;0.70;;;;;;;;;;697768;28;4352;-65
2024/02/23 01:45:23;;;;;;;2.05;0.70;;;;;;;;;;699336;28;928;-66
2024/02/23 01:45:43;;;;;;;2.00;0.70;;;;;;;;;;698396;28;1840;-65
2024/02/23 01:46:04;;;;;;;2.53;0.70;;;;;;;;;;698601;28;793;-65
2024/02/23 01:46:25;;;;;;;1.73;0.60;;;;;;;;;;705061;27;895;-66
2024/02/23 01:46:45;;;;;;;1.33;0.63;;;;;;;;;;702755;27;1780;-66
2024/02/23 01:47:05;;;;;;;1.77;0.70;;;;;;;;;;703543;28;845;-65
2024/02/23 01:47:26;;;;;;;1.45;0.60;;;;;;;;;;704701;27;940;-67
2024/02/23 01:47:47;;;;;;;1.30;0.70;;;;;;;;;;703872;27;1083;-64
2024/02/23 01:48:07;;;;;;;3.03;0.77;;;;;;;;;;702677;27;4791;-65
2024/02/23 01:48:28;;;;;;;2.58;0.77;;;;;;;;;;703263;28;1246;-64
2024/02/23 01:48:48;;;;;;;3.17;0.77;;;;;;;;;;701897;28;1900;-64
2024/02/23 01:49:09;;;;;;;2.60;0.73;;;;;;;;;;701806;28;856;-65
2024/02/23 01:49:33;;;;;;;1.97;0.70;;;;;;;;;;701516;28;800;-65
2024/02/23 01:49:54;;;;;;;2.13;0.70;;;;;;;;;;702279;28;1328;-65
2024/02/23 01:50:14;;;;;;;2.00;0.70;;;;;;;;;;703609;28;1118;-66
2024/02/23 01:50:35;;;;;;;2.47;0.70;;;;;;;;;;702936;28;884;-65
2024/02/23 01:50:56;;;;;;;1.52;0.68;;;;;;;;;;701738;28;4578;-65
2024/02/23 01:51:16;;;;;;;1.30;0.60;;;;;;;;;;705355;27;876;-66
2024/02/23 01:51:36;;;;;;;1.67;0.60;;;;;;;;;;704192;27;915;-67
2024/02/23 01:51:57;;;;;;;1.93;0.70;;;;;;;;;;704167;27;1180;-68
2024/02/23 01:52:18;;;;;;;0.90;0.60;;;;;;;;;;706820;27;888;-66
2024/02/23 01:52:38;;;;;;;2.83;0.75;;;;;;;;;;702377;28;789;-67
2024/02/23 01:53:00;;;;;;;3.42;0.88;;;;;;;;;;701047;28;1211;-67
2024/02/23 01:53:21;;;;;;;1.67;0.70;;;;;;;;;;701880;28;1059;-67
2024/02/23 01:53:41;;;;;;;3.10;0.90;;;;;;;;;;699538;28;2386;-68
2024/02/23 01:54:03;;;;;;;2.70;0.85;;;;;;;;;;701171;28;4593;-66
2024/02/23 01:54:24;;;;;;;1.45;0.70;;;;;;;;;;696917;28;1402;-66
2024/02/23 01:54:45;;;;;;;3.42;0.75;;;;;;;;;;698421;28;1012;-66
2024/02/23 01:55:05;;;;;;;2.80;0.70;;;;;;;;;;700703;28;1236;-67
2024/02/23 01:55:25;;;;;;;2.13;0.80;;;;;;;;;;699615;28;952;-66
2024/02/23 01:55:47;;;;;;;2.17;0.77;;;;;;;;;;695781;28;2465;-67
2024/02/23 01:56:08;;;;;;;2.17;0.70;;;;;;;;;;698336;28;2077;-65
2024/02/23 01:56:28;;;;;;;2.60;0.70;;;;;;;;;;695618;28;1179;-66
2024/02/23 01:56:49;;;;;;;1.70;0.60;;;;;;;;;;690126;28;1987;-67
2024/02/23 01:57:09;;;;;;;1.60;0.60;;;;;;;;;;693608;28;4469;-67
2024/02/23 01:57:30;;;;;;;2.33;0.67;;;;;;;;;;693229;28;924;-66
2024/02/23 01:57:50;;;;;;;2.75;0.70;;;;;;;;;;694426;28;2212;-66
2024/02/23 01:58:10;;;;;;;1.97;0.70;;;;;;;;;;698859;28;892;-64
2024/02/23 01:58:33;;;;;;;1.95;0.80;;;;;;;;;;700017;28;1053;-64
2024/02/23 01:58:55;;;;;;;1.40;0.80;;;;;;;;;;703057;28;1441;-66
2024/02/23 01:59:17;;;;;;;1.85;0.60;;;;;;;;;;704151;28;1022;-64
2024/02/23 01:59:38;;;;;;;1.65;0.60;;;;;;;;;;702871;27;920;-65
2024/02/23 01:59:58;;;;;;;1.55;0.60;;;;;;;;;;702264;27;4470;-65
2024/02/23 02:00:19;;;;;;;2.33;0.60;;;;;;;;;;705136;27;962;-65
2024/02/23 02:00:45;;;;;;;1.73;0.60;;;;;;;;;;697906;28;2253;-66
2024/02/23 02:01:05;;;;;;;2.30;0.70;;;;;;;;;;700793;28;848;-64
2024/02/23 02:01:26;;;;;;;2.07;0.77;;;;;;;;;;702496;28;778;-67
2024/02/23 02:01:46;;;;;;;1.50;0.70;;;;;;;;;;699780;28;2781;-66
2024/02/23 02:02:07;;;;;;;1.70;0.60;;;;;;;;;;698363;28;1349;-66
2024/02/23 02:02:27;;;;;;;2.28;0.80;;;;;;;;;;694590;28;1482;-66
2024/02/23 02:02:48;;;;;;;1.87;0.70;;;;;;;;;;691573;28;2669;-66
2024/02/23 02:03:09;;;;;;;1.80;0.77;;;;;;;;;;691764;28;4491;-65
2024/02/23 02:03:29;;;;;;;1.67;0.67;;;;;;;;;;689139;28;825;-67
2024/02/23 02:03:50;;;;;;;2.05;0.80;;;;;;;;;;688777;28;2066;-66
2024/02/23 02:04:10;;;;;;;1.30;0.60;;;;;;;;;;691373;28;2390;-66
2024/02/23 02:04:30;;;;;;;1.70;0.67;;;;;;;;;;694944;28;913;-66
2024/02/23 02:04:51;;;;;;;3.13;0.73;;;;;;;;;;696580;28;1709;-67
2024/02/23 02:05:11;;;;;;;1.67;0.60;;;;;;;;;;701909;28;853;-66
2024/02/23 02:05:31;;;;;;;1.58;0.70;;;;;;;;;;699716;28;1626;-67
2024/02/23 02:05:53;;;;;;;1.50;0.50;;;;;;;;;;699553;28;1841;-68
2024/02/23 02:06:13;;;;;;;1.60;0.60;;;;;;;;;;700894;28;4867;-67
2024/02/23 02:06:34;;;;;;;2.37;0.63;;;;;;;;;;702294;28;928;-67
2024/02/23 02:06:55;;;;;;;1.88;0.70;;;;;;;;;;698574;28;2212;-67
2024/02/23 02:07:15;;;;;;;0.97;0.60;;;;;;;;;;700548;28;919;-67
2024/02/23 02:07:35;;;;;;;1.10;0.60;;;;;;;;;;703993;27;943;-67
2024/02/23 02:07:58;;;;;;;2.37;0.60;;;;;;;;;;702421;27;2430;-66